Time;durP1;ratioP1;P1;durP2;ratioP2;P2;SDS_P1;SDS_P2;PMS_P1;PMS_P2;Temp;Humidity;BMP_temperature;BMP_pressure;BME280_temperature;BME280_humidity;BME280_pressure;Samples;Min_cycle;Max_cycle;Signal;HPM_P1;HPM_P2
2023/12/17 00:02:03;;;;;;;10.95;6.80;;;;;;;16.51;43.73;95328.69;5034813;28;20038;-92
2023/12/17 00:04:28;;;;;;;11.23;6.88;;;;;;;16.51;43.79;95334.13;5031569;28;20040;-92
2023/12/17 00:06:53;;;;;;;8.95;5.80;;;;;;;16.50;43.90;95342.78;5035460;28;20358;-92
2023/12/17 00:09:19;;;;;;;8.82;6.80;;;;;;;16.42;43.73;95337.63;5051492;28;20044;-92
2023/12/17 00:11:44;;;;;;;9.60;6.93;;;;;;;16.45;44.05;95344.88;5050729;28;20293;-92
2023/12/17 00:14:11;;;;;;;8.75;6.68;;;;;;;16.49;44.15;95342.00;5050508;28;20058;-91
2023/12/17 00:16:37;;;;;;;9.77;6.07;;;;;;;16.40;44.42;95336.53;5053271;28;20058;-92
2023/12/17 00:19:02;;;;;;;9.55;6.65;;;;;;;16.48;43.91;95347.94;5044982;28;20037;-92
2023/12/17 00:21:28;;;;;;;8.85;6.15;;;;;;;16.52;43.69;95352.03;5048702;28;20238;-91
2023/12/17 00:23:53;;;;;;;7.97;5.97;;;;;;;16.44;44.07;95346.13;5062449;28;20048;-91
2023/12/17 00:26:18;;;;;;;9.27;6.60;;;;;;;16.47;43.85;95352.63;5015345;28;20051;-91
2023/12/17 00:28:44;;;;;;;7.47;5.63;;;;;;;16.49;43.71;95347.47;5048422;28;20032;-91
2023/12/17 00:31:09;;;;;;;7.82;6.15;;;;;;;16.51;43.89;95357.94;5051040;28;20036;-91
2023/12/17 00:33:35;;;;;;;7.55;5.95;;;;;;;16.41;44.33;95354.44;5050671;28;20055;-92
2023/12/17 00:36:00;;;;;;;8.50;6.00;;;;;;;16.40;44.10;95359.16;5050723;28;20044;-92
2023/12/17 00:38:26;;;;;;;10.40;6.60;;;;;;;16.43;44.08;95360.22;5047955;28;20044;-92
2023/12/17 00:40:51;;;;;;;7.60;5.60;;;;;;;16.48;44.08;95353.38;5055364;28;20426;-90
2023/12/17 00:43:16;;;;;;;8.88;6.30;;;;;;;16.45;43.85;95357.81;5038344;28;20036;-92
2023/12/17 00:45:42;;;;;;;9.40;6.55;;;;;;;16.50;43.98;95357.19;5031129;28;20043;-92
2023/12/17 00:48:07;;;;;;;9.85;6.15;;;;;;;16.50;44.00;95353.69;5041270;28;20125;-92
2023/12/17 00:50:33;;;;;;;9.38;5.97;;;;;;;16.41;44.33;95349.75;5051627;28;20036;-91
2023/12/17 00:52:58;;;;;;;6.55;5.43;;;;;;;16.50;43.96;95343.53;5047994;28;20139;-92
2023/12/17 00:55:24;;;;;;;7.60;5.78;;;;;;;16.45;43.70;95350.34;5051038;28;20394;-92
2023/12/17 00:57:49;;;;;;;10.18;5.90;;;;;;;16.51;43.81;95349.75;5059852;28;20487;-91
2023/12/17 01:00:15;;;;;;;7.88;5.63;;;;;;;16.48;43.75;95340.50;5065135;28;20048;-91
2023/12/17 01:02:41;;;;;;;6.53;5.20;;;;;;;16.49;43.70;95346.72;5051271;28;20028;-91
2023/12/17 01:05:07;;;;;;;7.80;6.13;;;;;;;16.49;43.77;95336.56;5052348;28;20040;-91
2023/12/17 01:07:32;;;;;;;7.13;5.20;;;;;;;16.46;43.96;95337.44;5061266;28;20048;-92
2023/12/17 01:09:58;;;;;;;6.82;5.10;;;;;;;16.47;43.70;95333.50;5055537;28;20476;-92
2023/12/17 01:12:23;;;;;;;7.85;5.20;;;;;;;16.50;43.83;95332.63;5043811;28;20048;-92
2023/12/17 01:14:49;;;;;;;8.02;5.43;;;;;;;16.48;44.18;95339.72;5051918;28;20132;-92
2023/12/17 01:17:14;;;;;;;6.18;5.07;;;;;;;16.44;43.73;95337.16;5051696;28;20036;-91
2023/12/17 01:19:40;;;;;;;7.50;5.00;;;;;;;16.43;43.85;95343.84;5029755;28;20071;-91
2023/12/17 01:22:05;;;;;;;7.68;5.90;;;;;;;16.45;43.90;95344.88;5012213;28;20403;-91
2023/12/17 01:24:32;;;;;;;6.20;4.30;;;;;;;16.41;44.14;95347.03;5053763;28;20063;-92
2023/12/17 01:26:59;;;;;;;6.32;5.00;;;;;;;16.46;44.05;95346.41;5051191;28;20032;-92
2023/12/17 01:29:24;;;;;;;6.40;4.53;;;;;;;16.46;43.90;95345.66;5049999;28;20118;-91
2023/12/17 01:31:50;;;;;;;6.32;5.00;;;;;;;16.48;43.75;95339.72;5068114;28;20651;-91
2023/12/17 01:34:15;;;;;;;8.68;5.40;;;;;;;16.44;44.14;95343.41;5077558;28;20044;-91
2023/12/17 01:36:41;;;;;;;7.38;4.72;;;;;;;16.47;43.96;95338.97;5064832;28;20033;-90
2023/12/17 01:39:07;;;;;;;6.68;4.68;;;;;;;16.46;43.78;95354.59;5049608;28;20049;-92
2023/12/17 01:41:33;;;;;;;7.13;4.20;;;;;;;16.44;44.08;95346.13;5037186;28;20037;-91
2023/12/17 01:43:58;;;;;;;6.18;4.55;;;;;;;16.40;44.07;95348.22;5032811;28;20053;-91
2023/12/17 01:46:24;;;;;;;6.32;4.72;;;;;;;16.42;43.60;95348.53;5030779;28;20040;-92
2023/12/17 01:48:49;;;;;;;6.13;4.68;;;;;;;16.44;43.98;95354.31;5037032;28;20031;-91
2023/12/17 01:51:15;;;;;;;6.88;4.57;;;;;;;16.53;43.96;95366.44;5037239;28;20036;-92
2023/12/17 01:53:41;;;;;;;5.07;4.18;;;;;;;16.52;43.90;95370.38;5059145;28;20052;-92
2023/12/17 01:56:07;;;;;;;6.90;4.68;;;;;;;16.47;44.11;95379.91;5050134;28;20044;-92
2023/12/17 01:58:32;;;;;;;6.78;4.78;;;;;;;16.44;44.14;95370.69;5067523;28;20127;-91
2023/12/17 02:00:58;;;;;;;6.47;4.65;;;;;;;16.46;43.92;95379.16;5069758;28;20036;-92
2023/12/17 02:03:23;;;;;;;6.57;5.18;;;;;;;16.47;44.09;95363.53;5033529;28;20115;-91
2023/12/17 02:05:49;;;;;;;4.95;4.43;;;;;;;16.48;44.01;95369.75;5048918;28;20513;-92
2023/12/17 02:08:14;;;;;;;5.53;4.10;;;;;;;16.51;43.99;95372.34;5050566;28;20543;-91
2023/12/17 02:10:40;;;;;;;4.70;3.80;;;;;;;16.48;43.88;95367.03;5048403;28;20040;-92
2023/12/17 02:13:09;;;;;;;6.28;4.07;;;;;;;16.37;44.32;95364.75;5048366;28;20055;-91
2023/12/17 02:15:36;;;;;;;7.03;4.57;;;;;;;16.39;44.07;95367.78;5060699;28;20415;-92
2023/12/17 02:18:01;;;;;;;5.72;4.40;;;;;;;16.42;44.00;95356.72;5048606;28;20113;-91
2023/12/17 02:20:27;;;;;;;5.32;4.05;;;;;;;16.42;44.14;95354.00;5070430;28;20478;-91
2023/12/17 02:22:53;;;;;;;6.05;4.43;;;;;;;16.49;43.83;95352.19;5037481;28;20567;-91
2023/12/17 02:25:18;;;;;;;6.63;4.68;;;;;;;16.36;44.43;95355.03;5032851;28;20052;-92
2023/12/17 02:27:44;;;;;;;5.32;3.92;;;;;;;16.48;44.05;95364.31;5050477;28;20399;-92
2023/12/17 02:30:10;;;;;;;4.78;3.67;;;;;;;16.39;44.20;95354.13;5033802;28;20403;-92
2023/12/17 02:32:35;;;;;;;5.13;3.80;;;;;;;16.46;43.76;95345.66;5050785;28;20387;-92
2023/12/17 02:35:02;;;;;;;6.35;3.90;;;;;;;16.43;43.99;95344.59;5039985;28;20040;-92
2023/12/17 02:37:28;;;;;;;5.75;4.22;;;;;;;16.45;44.11;95349.59;5050139;28;20121;-92
2023/12/17 02:39:53;;;;;;;5.03;3.60;;;;;;;16.49;43.63;95346.72;5050276;28;20035;-92
2023/12/17 02:42:19;;;;;;;6.03;3.50;;;;;;;16.49;43.95;95338.53;5033640;28;20037;-91
2023/12/17 02:44:45;;;;;;;5.03;4.18;;;;;;;16.52;43.94;95332.94;5048281;28;20471;-92
2023/12/17 02:47:10;;;;;;;4.88;3.65;;;;;;;16.43;43.93;95333.69;5049452;28;20454;-91
2023/12/17 02:49:35;;;;;;;5.88;3.78;;;;;;;16.47;43.78;95330.78;5044913;28;20083;-92
2023/12/17 02:52:01;;;;;;;5.43;3.80;;;;;;;16.49;43.79;95328.38;4996222;28;20045;-92
2023/12/17 02:54:27;;;;;;;5.70;4.15;;;;;;;16.48;43.85;95323.34;4983922;28;20033;-91
2023/12/17 02:56:53;;;;;;;4.85;3.47;;;;;;;16.43;43.86;95330.19;5019958;28;20522;-92
2023/12/17 02:59:18;;;;;;;5.40;4.00;;;;;;;16.39;44.02;95326.84;5011473;28;20037;-92
2023/12/17 03:01:44;;;;;;;5.45;3.80;;;;;;;16.41;43.81;95322.44;4992249;28;20610;-91
2023/12/17 03:04:12;;;;;;;5.38;3.67;;;;;;;16.39;44.30;95326.84;4995074;28;20056;-92
2023/12/17 03:06:37;;;;;;;6.28;3.55;;;;;;;16.45;43.98;95325.78;4999722;28;20107;-91
2023/12/17 03:09:03;;;;;;;5.03;3.90;;;;;;;16.45;43.81;95327.78;5027000;28;20041;-91
2023/12/17 03:11:30;;;;;;;5.25;3.90;;;;;;;16.37;43.76;95334.72;5011173;28;20069;-92
2023/12/17 03:13:55;;;;;;;5.22;3.45;;;;;;;16.40;43.74;95326.38;4997152;28;20045;-91
2023/12/17 03:16:24;;;;;;;4.95;3.90;;;;;;;16.38;44.05;95333.50;4968028;28;20041;-91
2023/12/17 03:18:50;;;;;;;6.00;3.65;;;;;;;16.47;43.80;95328.06;4972909;28;20122;-91
2023/12/17 03:21:15;;;;;;;6.50;3.88;;;;;;;16.41;44.07;95332.59;5015003;28;20104;-91
2023/12/17 03:23:40;;;;;;;6.13;3.47;;;;;;;16.43;43.88;95322.00;5033108;28;20040;-91
2023/12/17 03:26:07;;;;;;;5.20;3.70;;;;;;;16.35;44.19;95307.88;5029290;28;20432;-92
2023/12/17 03:28:32;;;;;;;5.68;3.30;;;;;;;16.44;43.75;95301.69;5069489;28;20473;-91
2023/12/17 03:30:58;;;;;;;4.10;3.13;;;;;;;16.48;43.90;95304.25;5066471;28;20040;-92
2023/12/17 03:33:24;;;;;;;5.57;3.55;;;;;;;16.43;44.12;95313.81;5065472;28;20085;-91
2023/12/17 03:35:50;;;;;;;4.90;3.50;;;;;;;16.44;43.70;95318.81;5043963;28;20443;-91
2023/12/17 03:38:16;;;;;;;4.38;3.17;;;;;;;16.41;44.09;95319.72;5043635;28;20055;-91
2023/12/17 03:40:42;;;;;;;5.60;3.33;;;;;;;16.40;44.08;95317.44;5038272;28;20040;-92
2023/12/17 03:43:07;;;;;;;3.97;2.97;;;;;;;16.43;43.85;95328.22;5082093;28;20095;-92
2023/12/17 03:45:33;;;;;;;4.82;3.28;;;;;;;16.41;43.97;95332.59;5044552;28;20127;-92
2023/12/17 03:47:59;;;;;;;4.93;3.55;;;;;;;16.45;44.14;95325.78;5028776;28;20055;-92
2023/12/17 03:50:27;;;;;;;4.43;3.22;;;;;;;16.47;43.78;95319.88;5025181;28;20499;-91
2023/12/17 03:52:52;;;;;;;4.10;2.80;;;;;;;16.46;43.75;95315.63;5044023;28;20047;-92
2023/12/17 03:55:18;;;;;;;4.75;3.42;;;;;;;16.41;43.82;95310.78;5038489;28;20453;-91
2023/12/17 03:57:45;;;;;;;5.90;3.00;;;;;;;16.47;43.99;95295.31;5048790;28;20048;-92
2023/12/17 04:00:11;;;;;;;3.35;2.95;;;;;;;16.47;43.89;95303.50;5038612;28;20036;-92
2023/12/17 04:02:37;;;;;;;3.30;2.90;;;;;;;16.47;43.78;95300.75;5032556;28;20038;-91
2023/12/17 04:05:02;;;;;;;3.72;3.10;;;;;;;16.43;44.00;95298.19;5016091;28;20462;-92
2023/12/17 04:07:30;;;;;;;3.75;2.95;;;;;;;16.44;43.84;95277.13;5031736;28;20063;-92
2023/12/17 04:09:56;;;;;;;4.70;3.38;;;;;;;16.37;44.20;95283.63;5033504;28;20115;-92
2023/12/17 04:12:21;;;;;;;4.25;2.97;;;;;;;16.39;44.23;95269.53;5031771;28;20040;-92
2023/12/17 04:14:47;;;;;;;3.92;2.78;;;;;;;16.39;43.82;95275.75;5023922;28;20506;-92
2023/12/17 04:17:12;;;;;;;4.22;3.38;;;;;;;16.45;43.96;95284.81;5061785;28;20184;-91
2023/12/17 04:19:37;;;;;;;4.63;3.38;;;;;;;16.42;44.07;95285.00;5048488;28;20396;-92
2023/12/17 04:22:03;;;;;;;3.60;3.13;;;;;;;16.44;43.87;95285.31;5059413;28;20400;-92
2023/12/17 04:24:28;;;;;;;4.28;3.17;;;;;;;16.33;44.12;95276.78;5026590;28;20041;-91
2023/12/17 04:26:54;;;;;;;4.03;3.08;;;;;;;16.44;43.98;95275.16;5046037;28;20064;-91
2023/12/17 04:29:19;;;;;;;4.40;3.13;;;;;;;16.45;43.90;95273.19;5054096;28;20091;-91
2023/12/17 04:31:45;;;;;;;4.00;2.47;;;;;;;16.40;44.15;95277.25;5054347;28;20028;-92
2023/12/17 04:34:11;;;;;;;3.75;3.00;;;;;;;16.48;43.95;95279.69;5021234;28;20051;-92
2023/12/17 04:36:37;;;;;;;3.17;2.70;;;;;;;16.48;43.79;95288.63;5052499;28;20047;-92
2023/12/17 04:39:03;;;;;;;3.92;3.25;;;;;;;16.44;44.02;95277.13;5064170;28;20116;-91
2023/12/17 04:41:28;;;;;;;4.13;2.90;;;;;;;16.46;43.91;95280.88;5051694;28;20040;-91
2023/12/17 04:43:54;;;;;;;4.72;2.97;;;;;;;16.36;44.26;95292.25;5035382;28;20395;-91
2023/12/17 04:46:19;;;;;;;3.97;2.78;;;;;;;16.49;43.68;95289.38;5057015;28;20491;-91
2023/12/17 04:48:44;;;;;;;2.65;2.40;;;;;;;16.50;44.10;95294.41;5081604;28;20063;-92
2023/12/17 04:51:10;;;;;;;3.88;2.80;;;;;;;16.49;43.82;95292.88;5067046;28;20032;-91
2023/12/17 04:53:35;;;;;;;3.75;2.50;;;;;;;16.48;43.85;95285.91;5061327;28;20032;-91
2023/12/17 04:56:01;;;;;;;3.75;2.90;;;;;;;16.47;43.82;95281.66;5044243;28;20081;-92
2023/12/17 04:58:26;;;;;;;4.13;2.88;;;;;;;16.49;43.81;95281.19;5031232;28;20048;-92
2023/12/17 05:00:52;;;;;;;3.42;2.80;;;;;;;16.43;44.06;95290.00;5048088;28;20107;-92
2023/12/17 05:03:17;;;;;;;3.65;2.70;;;;;;;16.45;43.64;95286.81;5031145;28;20395;-91
2023/12/17 05:05:43;;;;;;;4.18;2.75;;;;;;;16.45;43.92;95287.56;5041017;28;20042;-91
2023/12/17 05:08:08;;;;;;;3.63;2.92;;;;;;;16.48;43.55;95294.09;5044140;28;20055;-91
2023/12/17 05:10:34;;;;;;;3.75;2.50;;;;;;;16.50;43.67;95288.94;5016433;28;20522;-92
2023/12/17 05:12:59;;;;;;;3.00;2.40;;;;;;;16.50;43.50;95286.22;4995327;28;20041;-91
2023/12/17 05:15:25;;;;;;;3.28;2.78;;;;;;;16.49;43.67;95287.41;4994451;28;20037;-92
2023/12/17 05:17:50;;;;;;;3.60;2.95;;;;;;;16.39;44.02;95294.84;5008863;28;20041;-91
2023/12/17 05:20:16;;;;;;;3.78;2.58;;;;;;;16.40;43.66;95299.09;5039128;28;20075;-92
2023/12/17 05:22:41;;;;;;;4.15;2.38;;;;;;;16.51;43.81;95292.44;5043647;28;20040;-92
2023/12/17 05:25:07;;;;;;;3.60;2.50;;;;;;;16.45;44.06;95293.00;5020541;28;20065;-92
2023/12/17 05:27:32;;;;;;;2.80;2.38;;;;;;;16.43;43.72;95291.97;5041174;28;20052;-91
2023/12/17 05:29:58;;;;;;;3.08;2.28;;;;;;;16.43;44.12;95287.28;5026192;28;20048;-92
2023/12/17 05:32:23;;;;;;;5.30;2.53;;;;;;;16.48;43.61;95287.88;5034441;28;20502;-91
2023/12/17 05:34:49;;;;;;;3.25;2.67;;;;;;;16.45;43.89;95284.09;5049238;28;20068;-92
2023/12/17 05:37:14;;;;;;;2.50;2.30;;;;;;;16.48;43.61;95282.41;5038973;28;20487;-92
2023/12/17 05:39:40;;;;;;;2.58;1.92;;;;;;;16.46;43.84;95297.25;5053124;28;20044;-92
2023/12/17 05:42:05;;;;;;;3.33;2.35;;;;;;;16.46;43.57;95299.25;5070493;28;20051;-91
2023/12/17 05:44:31;;;;;;;3.47;2.55;;;;;;;16.42;43.87;95296.69;5034752;28;20421;-91
2023/12/17 05:46:56;;;;;;;4.28;2.45;;;;;;;16.44;44.08;95299.72;5046030;28;20034;-91
2023/12/17 05:49:21;;;;;;;2.83;2.03;;;;;;;16.45;43.99;95297.75;5051773;28;20051;-92
2023/12/17 05:51:47;;;;;;;3.15;2.42;;;;;;;16.45;43.70;95303.22;5031489;28;20038;-92
2023/12/17 05:54:13;;;;;;;2.42;2.00;;;;;;;16.45;44.03;95295.75;5050334;28;20047;-92
2023/12/17 05:56:40;;;;;;;2.30;2.08;;;;;;;16.47;43.69;95295.31;5037315;28;20342;-92
2023/12/17 05:59:05;;;;;;;3.35;2.55;;;;;;;16.50;43.69;95299.84;5029591;28;20483;-92
2023/12/17 06:01:30;;;;;;;3.55;2.53;;;;;;;16.48;43.84;95298.78;5027282;28;20037;-91
2023/12/17 06:03:56;;;;;;;3.00;2.42;;;;;;;16.44;43.71;95297.00;4995551;28;20356;-91
2023/12/17 06:06:21;;;;;;;3.03;2.20;;;;;;;16.43;43.54;95295.47;5030542;28;22354;-91
2023/12/17 06:08:47;;;;;;;3.58;2.38;;;;;;;16.47;43.73;95298.03;5048825;28;20112;-92
2023/12/17 06:11:16;;;;;;;2.50;1.70;;;;;;;16.45;43.79;95293.00;5029585;28;20052;-92
2023/12/17 06:13:42;;;;;;;3.17;2.00;;;;;;;16.47;43.46;95295.31;5031676;28;20468;-92
2023/12/17 06:16:08;;;;;;;3.35;2.03;;;;;;;16.46;43.22;95291.81;5030556;28;20400;-92
2023/12/17 06:18:33;;;;;;;3.05;1.88;;;;;;;16.39;43.74;95300.31;5031433;28;20041;-91
2023/12/17 06:21:01;;;;;;;2.80;2.47;;;;;;;16.46;43.54;95301.97;5030547;28;20040;-92
2023/12/17 06:23:27;;;;;;;2.70;1.90;;;;;;;16.47;43.83;95289.84;5030551;28;20061;-91
2023/12/17 06:25:52;;;;;;;2.50;2.08;;;;;;;16.43;43.64;95294.72;5015232;28;20521;-91
2023/12/17 06:28:20;;;;;;;3.30;1.95;;;;;;;16.40;43.85;95290.91;5008752;28;20048;-92
2023/12/17 06:30:45;;;;;;;2.95;2.17;;;;;;;16.38;43.73;95293.31;5030033;28;20044;-92
2023/12/17 06:33:11;;;;;;;2.38;2.08;;;;;;;16.43;43.79;95292.75;5026637;28;20033;-92
2023/12/17 06:35:37;;;;;;;3.70;2.30;;;;;;;16.46;43.82;95291.03;5023494;28;20446;-91
2023/12/17 06:38:02;;;;;;;3.33;2.00;;;;;;;16.45;43.66;95303.94;5030233;28;20043;-91
2023/12/17 06:40:28;;;;;;;3.20;1.92;;;;;;;16.37;43.93;95291.81;5020978;28;20038;-92
2023/12/17 06:42:53;;;;;;;3.35;2.30;;;;;;;16.40;43.94;95290.16;5027455;28;20122;-91
2023/12/17 06:45:21;;;;;;;2.97;1.92;;;;;;;16.37;43.98;95291.81;5019399;28;20108;-91
2023/12/17 06:47:47;;;;;;;3.03;2.20;;;;;;;16.32;44.07;95284.22;5029695;28;20037;-92
2023/12/17 06:50:12;;;;;;;3.03;2.08;;;;;;;16.38;44.05;95290.59;5029126;28;20067;-90
2023/12/17 06:52:38;;;;;;;2.10;1.73;;;;;;;16.33;43.97;95285.72;5030584;28;20036;-91
2023/12/17 06:55:04;;;;;;;3.05;1.88;;;;;;;16.39;43.66;95289.38;5029621;28;20037;-92
2023/12/17 06:57:29;;;;;;;2.53;1.98;;;;;;;16.42;43.46;95299.41;5029240;28;20046;-92
2023/12/17 06:59:55;;;;;;;2.70;1.83;;;;;;;16.43;43.87;95283.78;5011127;28;20043;-92
2023/12/17 07:02:20;;;;;;;2.72;2.05;;;;;;;16.40;43.87;95290.16;5026485;28;20048;-91
2023/12/17 07:04:46;;;;;;;1.70;1.60;;;;;;;16.44;43.86;95290.75;5083854;28;20032;-92
2023/12/17 07:07:11;;;;;;;3.00;2.25;;;;;;;16.43;43.61;95287.28;5052607;28;20058;-91
2023/12/17 07:09:37;;;;;;;3.35;2.00;;;;;;;16.40;43.66;95290.91;5036832;28;20060;-91
2023/12/17 07:12:02;;;;;;;2.47;1.98;;;;;;;16.44;43.79;95286.06;5079275;28;20108;-91
2023/12/17 07:14:27;;;;;;;2.92;1.80;;;;;;;16.39;43.72;95292.13;5049868;28;20112;-92
2023/12/17 07:16:53;;;;;;;1.88;1.45;;;;;;;16.33;43.90;95295.88;5071795;28;20413;-91
2023/12/17 07:19:18;;;;;;;2.95;2.20;;;;;;;16.43;43.86;95295.47;5055828;28;20047;-92
2023/12/17 07:21:44;;;;;;;2.80;1.70;;;;;;;16.41;43.94;95305.31;5072292;28;20137;-92
2023/12/17 07:24:10;;;;;;;2.25;1.65;;;;;;;16.43;43.81;95305.63;5041590;28;20041;-92
2023/12/17 07:26:35;;;;;;;3.30;1.75;;;;;;;16.44;43.65;95312.59;5027605;28;20078;-91
2023/12/17 07:29:00;;;;;;;2.58;2.00;;;;;;;16.50;43.50;95315.47;5040737;28;20036;-91
2023/12/17 07:31:26;;;;;;;1.65;1.55;;;;;;;16.50;43.30;95320.94;5054310;28;20040;-92
2023/12/17 07:33:51;;;;;;;2.85;2.13;;;;;;;16.48;43.44;95312.44;5064744;28;20086;-91
2023/12/17 07:36:17;;;;;;;2.35;2.05;;;;;;;16.47;43.80;95319.88;5051901;28;20036;-91
2023/12/17 07:38:42;;;;;;;2.00;1.55;;;;;;;16.44;43.66;95318.81;5037000;28;20036;-92
2023/12/17 07:41:08;;;;;;;2.17;1.90;;;;;;;16.39;43.94;95319.41;5061228;28;20406;-91
2023/12/17 07:43:34;;;;;;;2.28;1.83;;;;;;;16.48;43.37;95317.91;5055300;28;20453;-91
2023/12/17 07:46:00;;;;;;;1.90;1.60;;;;;;;16.47;43.41;95314.41;5036211;28;20455;-91
2023/12/17 07:48:25;;;;;;;2.22;1.70;;;;;;;16.42;43.79;95312.28;5067275;28;20059;-91
2023/12/17 07:50:51;;;;;;;3.08;1.60;;;;;;;16.48;43.36;95310.47;5071325;28;20040;-92
2023/12/17 07:53:16;;;;;;;2.15;1.95;;;;;;;16.49;43.35;95319.41;5030105;28;20117;-91
2023/12/17 07:55:42;;;;;;;2.67;1.92;;;;;;;16.52;43.69;95321.25;5050821;28;20102;-91
2023/12/17 07:58:07;;;;;;;3.78;2.53;;;;;;;16.49;43.62;95313.97;5055234;28;20094;-91
2023/12/17 08:00:33;;;;;;;2.67;1.75;;;;;;;16.46;43.63;95316.38;5047978;28;20036;-91
2023/12/17 08:02:58;;;;;;;2.50;1.77;;;;;;;16.53;43.35;95309.88;5047962;28;20028;-91
2023/12/17 08:05:24;;;;;;;1.50;1.40;;;;;;;16.45;43.72;95325.03;5064420;28;20048;-91
2023/12/17 08:07:50;;;;;;;3.00;1.98;;;;;;;16.45;43.73;95323.03;5054981;28;20058;-92
2023/12/17 08:10:16;;;;;;;1.80;1.70;;;;;;;16.46;43.71;95319.09;5071541;28;20046;-91
2023/12/17 08:12:41;;;;;;;2.85;1.80;;;;;;;16.45;43.97;95316.84;5064278;28;20036;-91
2023/12/17 08:15:07;;;;;;;2.70;1.98;;;;;;;16.42;43.65;95320.47;5028777;28;20461;-92
2023/12/17 08:17:32;;;;;;;2.50;2.00;;;;;;;16.42;44.04;95323.22;5050178;28;20039;-91
2023/12/17 08:19:58;;;;;;;2.47;1.70;;;;;;;16.43;44.14;95324.72;5071517;28;20039;-91
2023/12/17 08:22:23;;;;;;;2.55;1.95;;;;;;;16.44;43.84;95326.25;5071014;28;20625;-91
2023/12/17 08:24:49;;;;;;;2.97;2.05;;;;;;;16.52;43.50;95319.28;5063826;28;20563;-92
2023/12/17 08:27:15;;;;;;;2.10;1.75;;;;;;;16.49;43.77;95317.44;5056181;28;20028;-91
2023/12/17 08:29:41;;;;;;;3.38;1.88;;;;;;;16.42;43.92;95323.97;5053370;28;20121;-91
2023/12/17 08:32:06;;;;;;;1.85;1.63;;;;;;;16.47;44.12;95319.88;5069430;28;20483;-91
2023/12/17 08:34:32;;;;;;;1.85;1.52;;;;;;;16.53;43.82;95325.50;5062561;28;20039;-91
2023/12/17 08:36:57;;;;;;;2.70;1.80;;;;;;;16.52;43.75;95323.97;5070617;28;20056;-91
2023/12/17 08:39:23;;;;;;;2.10;1.90;;;;;;;16.51;43.62;95319.72;5073587;28;20479;-92
2023/12/17 08:41:51;;;;;;;2.00;1.65;;;;;;;16.54;43.87;95318.81;5048943;28;20564;-91
2023/12/17 08:44:20;;;;;;;1.50;1.40;;;;;;;16.59;43.55;95318.22;5056715;28;20110;-91
2023/12/17 08:46:45;;;;;;;1.88;1.58;;;;;;;16.49;43.48;95316.69;5047437;28;20039;-91
2023/12/17 08:49:11;;;;;;;3.70;1.90;;;;;;;16.46;43.72;95316.38;5043521;28;20037;-91
2023/12/17 08:51:38;;;;;;;3.03;1.67;;;;;;;16.60;43.14;95315.06;5008774;28;20033;-92
2023/12/17 08:54:03;;;;;;;1.92;1.60;;;;;;;16.49;43.72;95319.41;5021923;28;21114;-92
2023/12/17 08:56:32;;;;;;;2.13;1.70;;;;;;;16.54;43.68;95313.38;5034779;28;20032;-92
2023/12/17 08:58:57;;;;;;;2.20;1.75;;;;;;;16.59;43.43;95323.69;5034314;28;20039;-91
2023/12/17 09:01:23;;;;;;;1.80;1.50;;;;;;;16.59;43.26;95327.19;5030405;28;20044;-92
2023/12/17 09:03:50;;;;;;;2.05;1.48;;;;;;;16.53;43.79;95325.50;5032941;28;20067;-91
2023/12/17 09:06:16;;;;;;;1.98;1.58;;;;;;;16.54;43.66;95327.78;5050133;28;20040;-92
2023/12/17 09:08:44;;;;;;;3.10;2.00;;;;;;;16.55;43.64;95329.28;5052679;28;20405;-91
2023/12/17 09:11:11;;;;;;;3.10;2.00;;;;;;;16.58;43.77;95322.19;5059970;28;20048;-92
2023/12/17 09:13:37;;;;;;;1.73;1.50;;;;;;;16.62;43.64;95328.25;5033627;28;20059;-92
2023/12/17 09:16:02;;;;;;;1.60;1.35;;;;;;;16.62;43.36;95323.56;5052706;28;20252;-90
2023/12/17 09:18:28;;;;;;;1.85;1.70;;;;;;;16.59;43.78;95329.16;5072340;28;20132;-92
2023/12/17 09:20:53;;;;;;;2.03;1.50;;;;;;;16.56;44.04;95324.59;5059002;28;20040;-92
2023/12/17 09:23:19;;;;;;;2.20;1.55;;;;;;;16.57;44.05;95323.38;5067580;28;20079;-92
2023/12/17 09:25:44;;;;;;;1.58;1.13;;;;;;;16.63;43.41;95324.31;5046591;28;20044;-92
2023/12/17 09:28:11;;;;;;;1.67;1.35;;;;;;;16.57;43.54;95326.88;5015178;28;20040;-92
2023/12/17 09:30:36;;;;;;;2.45;1.67;;;;;;;16.59;43.92;95329.16;5067263;28;20117;-92
2023/12/17 09:33:02;;;;;;;1.40;1.30;;;;;;;16.59;43.48;95324.47;5054741;28;20402;-91
2023/12/17 09:35:28;;;;;;;2.40;1.85;;;;;;;16.67;43.25;95319.50;5055797;28;20082;-92
2023/12/17 09:37:53;;;;;;;2.38;1.60;;;;;;;16.64;43.47;95328.59;5081451;28;20036;-92
2023/12/17 09:40:19;;;;;;;2.08;1.45;;;;;;;16.66;43.69;95326.19;5071405;28;20043;-91
2023/12/17 09:42:44;;;;;;;1.70;1.48;;;;;;;16.62;43.74;95315.38;5063552;28;20054;-91
2023/12/17 09:45:14;;;;;;;2.05;1.30;;;;;;;16.59;43.42;95318.22;5053390;28;20063;-92
2023/12/17 09:47:41;;;;;;;1.52;1.40;;;;;;;16.55;43.73;95315.66;5068624;28;20036;-92
2023/12/17 09:50:08;;;;;;;2.10;1.58;;;;;;;16.64;43.55;95317.69;5075908;28;20050;-91
2023/12/17 09:52:33;;;;;;;2.13;1.50;;;;;;;16.58;43.59;95325.66;5089055;28;20043;-91
2023/12/17 09:55:03;;;;;;;2.58;1.40;;;;;;;16.58;43.56;95316.72;5071149;28;20052;-92
2023/12/17 09:57:29;;;;;;;2.05;1.42;;;;;;;16.58;43.63;95314.75;5067725;28;20044;-92
2023/12/17 09:59:54;;;;;;;2.28;1.50;;;;;;;16.65;43.56;95311.00;5051389;28;20503;-92
2023/12/17 10:02:20;;;;;;;1.75;1.60;;;;;;;16.67;43.46;95308.56;5032913;28;20299;-92
2023/12/17 10:04:45;;;;;;;2.15;1.70;;;;;;;16.62;43.66;95315.38;5017713;28;20063;-92
2023/12/17 10:07:12;;;;;;;2.22;1.70;;;;;;;16.69;43.70;95311.59;5045736;28;20131;-93
2023/12/17 10:09:37;;;;;;;1.85;1.40;;;;;;;16.67;43.46;95300.38;5051350;28;20511;-92
2023/12/17 10:12:03;;;;;;;1.48;1.15;;;;;;;16.71;43.46;95303.72;5033457;28;20549;-92
2023/12/17 10:14:30;;;;;;;1.58;1.38;;;;;;;16.67;43.29;95309.31;5015803;28;20391;-92
2023/12/17 10:16:58;;;;;;;2.38;1.45;;;;;;;16.63;43.81;95308.72;5029280;28;20071;-92
2023/12/17 10:19:24;;;;;;;1.75;1.35;;;;;;;16.69;43.50;95295.97;5064543;28;20044;-92
2023/12/17 10:21:50;;;;;;;2.35;1.50;;;;;;;16.62;43.82;95303.69;5031898;28;20041;-92
2023/12/17 10:24:15;;;;;;;2.20;1.58;;;;;;;16.67;43.68;95298.38;5017263;28;20399;-92
2023/12/17 10:26:44;;;;;;;2.42;1.40;;;;;;;16.70;43.66;95294.75;5014448;28;20033;-91
2023/12/17 10:29:21;;;;;;;1.38;1.23;;;;;;;16.68;43.50;95299.16;5046853;28;20033;-92
2023/12/17 10:31:48;;;;;;;1.90;1.20;;;;;;;16.76;43.76;95294.91;5043690;28;20130;-92
2023/12/17 10:34:26;;;;;;;1.33;1.23;;;;;;;16.68;43.94;95293.69;5032509;28;20074;-92
2023/12/17 10:36:56;;;;;;;2.28;1.55;;;;;;;16.70;43.82;95297.47;5022755;28;20045;-93
2023/12/17 10:39:22;;;;;;;1.33;1.20;;;;;;;16.66;43.65;95296.91;4995060;28;20092;-92
2023/12/17 10:41:53;;;;;;;1.63;1.52;;;;;;;16.66;43.84;95294.16;5049116;28;20037;-92
2023/12/17 10:44:21;;;;;;;1.50;1.15;;;;;;;16.71;43.48;95296.28;5065576;28;20112;-92
2023/12/17 10:46:51;;;;;;;2.30;1.50;;;;;;;16.63;43.74;95291.56;4978686;28;20061;-93
2023/12/17 10:49:21;;;;;;;1.90;1.00;;;;;;;16.70;43.59;95285.81;4979616;28;20046;-92
2023/12/17 10:51:53;;;;;;;1.50;1.17;;;;;;;16.61;43.65;95288.50;4968526;28;20034;-93
2023/12/17 10:54:22;;;;;;;1.80;1.30;;;;;;;16.64;44.04;95284.91;4967166;28;20525;-92
2023/12/17 10:56:51;;;;;;;1.75;1.50;;;;;;;16.66;43.95;95290.69;4952677;28;20038;-93
2023/12/17 10:59:24;;;;;;;1.85;1.50;;;;;;;16.66;43.73;95287.94;4951603;28;20127;-92
2023/12/17 11:01:56;;;;;;;1.40;1.10;;;;;;;16.67;43.42;95286.72;4940914;28;20058;-92
2023/12/17 11:04:22;;;;;;;2.65;1.65;;;;;;;16.70;43.63;95281.09;4918605;28;20043;-92
2023/12/17 11:06:54;;;;;;;2.35;1.42;;;;;;;16.76;43.42;95273.06;4951524;28;20045;-92
2023/12/17 11:09:24;;;;;;;1.58;1.38;;;;;;;16.71;43.56;95271.69;4968489;28;20063;-92
2023/12/17 11:11:53;;;;;;;1.65;1.20;;;;;;;16.73;43.64;95272.00;4983744;28;20054;-92
2023/12/17 11:14:19;;;;;;;2.45;1.38;;;;;;;16.73;43.74;95273.97;4950402;28;20098;-92
2023/12/17 11:16:46;;;;;;;2.42;1.40;;;;;;;16.72;43.50;95267.75;4919679;29;20099;-93
2023/12/17 11:19:13;;;;;;;1.75;1.20;;;;;;;16.64;43.74;95266.56;4902392;29;20173;-93
2023/12/17 11:21:41;;;;;;;2.45;1.63;;;;;;;16.67;44.00;95270.34;4900178;29;20194;-93
2023/12/17 11:24:23;;;;;;;1.67;1.27;;;;;;;16.68;44.06;95272.59;4927610;29;20163;-93
2023/12/17 11:26:50;;;;;;;2.22;1.40;;;;;;;16.72;43.55;95267.75;4903283;29;20054;-92
2023/12/17 11:29:38;;;;;;;1.63;1.35;;;;;;;16.72;43.85;95258.81;4865702;29;20092;-92